East Wemyss, United Kingdom
Current Conditions -  °F | °C
As of 11:50 AM on Tuesday 21 Oct 2014 (Local Time) from EGQL Reporting Station
Moderate Rain Moderate Rain  
Wind Chill: 40°   Ceiling: Unl
Heat Index: 48°   Visibility: 6mi
Dew Point: 39°   Wind: 30mph
Humidity: 71%   Direction: 290°WNW
Pressure: 29.32"   Gusts: 46mph
Location:  56.16°N, 3.06°W
Report Text: EGQL 211050Z 29026G40KT 9999 RA FEW008 SCT030 09/04 Q0993 BLU
Loading
Personal Weather Stations






























Interactive Weather Map
Tropical Storm Tracking
New forecast layout! Learn more

10-Day Weather Forecast

Advertisements
Track Severe Weather on mobile